createdAt,value
2023-04-23T00:02:00.697Z,1.35
2023-04-23T00:04:29.970Z,1.47
2023-04-23T00:06:59.867Z,1.40
2023-04-23T00:09:32.541Z,1.27
2023-04-23T00:12:02.987Z,1.58
2023-04-23T00:14:31.553Z,1.60
2023-04-23T00:16:59.762Z,1.45
2023-04-23T00:19:27.870Z,1.65
2023-04-23T00:21:56.000Z,1.50
2023-04-23T00:24:24.107Z,1.65
2023-04-23T00:26:53.047Z,1.50
2023-04-23T00:29:22.495Z,1.60
2023-04-23T00:31:50.641Z,1.45
2023-04-23T00:34:18.770Z,1.75
2023-04-23T00:36:46.886Z,1.80
2023-04-23T00:39:15.200Z,1.50
2023-04-23T00:41:44.418Z,1.70
2023-04-23T00:44:13.097Z,2.00
2023-04-23T00:46:43.330Z,2.00
2023-04-23T00:49:12.104Z,1.88
2023-04-23T00:51:40.537Z,1.67
2023-04-23T00:54:08.679Z,1.95
2023-04-23T00:56:37.077Z,2.10
2023-04-23T00:59:05.370Z,2.10
2023-04-23T01:01:33.928Z,2.50
2023-04-23T01:04:03.841Z,1.95
2023-04-23T01:06:32.205Z,2.25
2023-04-23T01:09:00.469Z,1.88
2023-04-23T01:11:28.732Z,2.17
2023-04-23T01:13:57.450Z,2.03
2023-04-23T01:16:25.651Z,2.42
2023-04-23T01:18:53.773Z,1.83
2023-04-23T01:21:23.795Z,2.40
2023-04-23T01:23:53.270Z,2.20
2023-04-23T01:26:22.269Z,2.63
2023-04-23T01:28:51.280Z,2.40
2023-04-23T01:31:19.845Z,2.30
2023-04-23T01:33:48.366Z,2.40
2023-04-23T01:36:16.726Z,2.33
2023-04-23T01:38:44.856Z,2.25
2023-04-23T01:41:14.438Z,2.60
2023-04-23T01:43:43.549Z,2.53
2023-04-23T01:46:12.338Z,2.30
2023-04-23T01:48:40.715Z,2.45
2023-04-23T01:51:09.095Z,2.58
2023-04-23T01:53:37.176Z,2.50
2023-04-23T01:56:06.228Z,2.58
2023-04-23T01:58:35.755Z,2.17
2023-04-23T02:01:03.994Z,3.22
2023-04-23T02:03:33.996Z,2.58
2023-04-23T02:06:02.412Z,2.38
2023-04-23T02:08:30.551Z,2.65
2023-04-23T02:10:58.684Z,2.80
2023-04-23T02:13:26.750Z,2.95
2023-04-23T02:15:56.253Z,2.42
2023-04-23T02:18:24.342Z,2.80
2023-04-23T02:20:52.475Z,2.80
2023-04-23T02:23:20.539Z,2.75
2023-04-23T02:25:48.633Z,2.47
2023-04-23T02:28:16.714Z,2.60
2023-04-23T02:30:46.730Z,2.40
2023-04-23T02:33:16.178Z,2.92
2023-04-23T02:35:44.304Z,2.58
2023-04-23T02:38:12.435Z,2.58
2023-04-23T02:40:40.535Z,2.70
2023-04-23T02:43:08.669Z,2.63
2023-04-23T02:45:36.780Z,2.72
2023-04-23T02:48:05.099Z,2.50
2023-04-23T02:50:35.183Z,2.65
2023-04-23T02:53:03.298Z,2.50
2023-04-23T02:55:32.080Z,2.70
2023-04-23T02:58:01.046Z,2.55
2023-04-23T03:00:29.537Z,3.35
2023-04-23T03:02:57.751Z,2.85
2023-04-23T03:05:26.003Z,3.00
2023-04-23T03:07:55.455Z,2.92
2023-04-23T03:10:23.579Z,2.92
2023-04-23T03:12:51.666Z,2.83
2023-04-23T03:15:19.897Z,2.90
2023-04-23T03:17:48.400Z,2.83
2023-04-23T03:20:16.584Z,2.95
2023-04-23T03:22:44.643Z,2.97
2023-04-23T03:25:14.107Z,2.80
2023-04-23T03:27:42.478Z,2.92
2023-04-23T03:30:11.608Z,2.72
2023-04-23T03:32:39.977Z,3.00
2023-04-23T03:35:09.697Z,3.15
2023-04-23T03:37:37.873Z,2.58
2023-04-23T03:40:07.735Z,2.70
2023-04-23T03:45:06.560Z,3.00
2023-04-23T03:47:34.698Z,2.85
2023-04-23T03:50:02.819Z,2.47
2023-04-23T03:52:31.019Z,3.10
2023-04-23T03:54:59.153Z,3.03
2023-04-23T03:57:27.430Z,3.10
2023-04-23T03:59:56.882Z,2.67
2023-04-23T04:02:25.119Z,2.90
2023-04-23T04:04:55.131Z,2.67
2023-04-23T04:07:23.509Z,2.40
2023-04-23T04:09:51.562Z,3.08
2023-04-23T04:12:19.681Z,2.97
2023-04-23T04:14:47.773Z,2.83
2023-04-23T04:17:17.238Z,3.30
2023-04-23T04:19:45.376Z,3.97
2023-04-23T04:22:13.538Z,4.57
2023-04-23T04:24:42.231Z,5.95
2023-04-23T04:27:11.724Z,5.60
2023-04-23T04:29:40.851Z,5.28
2023-04-23T04:32:09.654Z,5.07
2023-04-23T04:34:40.032Z,5.32
2023-04-23T04:37:10.029Z,5.25
2023-04-23T04:39:38.163Z,4.63
2023-04-23T04:42:07.374Z,21.23
2023-04-23T04:44:38.117Z,26.40
2023-04-23T04:47:07.373Z,25.42
2023-04-23T04:49:36.001Z,18.65
2023-04-23T04:52:05.658Z,16.02
2023-04-23T04:54:33.729Z,14.85
2023-04-23T04:57:02.446Z,14.35
2023-04-23T04:59:30.572Z,14.20
2023-04-23T05:01:59.734Z,13.57
2023-04-23T05:04:27.994Z,11.98
2023-04-23T05:06:56.496Z,11.73
2023-04-23T05:09:27.132Z,11.07
2023-04-23T05:11:55.856Z,11.07
2023-04-23T05:14:26.027Z,10.18
2023-04-23T05:16:54.236Z,10.52
2023-04-23T05:19:22.326Z,10.00
2023-04-23T05:21:50.494Z,10.00
2023-04-23T05:24:18.586Z,8.48
2023-04-23T05:26:48.069Z,8.90
2023-04-23T05:29:19.302Z,8.48
2023-04-23T05:31:47.744Z,8.50
2023-04-23T05:34:15.915Z,8.13
2023-04-23T05:36:44.434Z,7.80
2023-04-23T05:39:12.524Z,7.95
2023-04-23T05:41:40.755Z,7.47
2023-04-23T05:44:10.203Z,7.20
2023-04-23T05:46:38.766Z,6.53
2023-04-23T05:49:06.829Z,7.32
2023-04-23T05:51:34.946Z,6.93
2023-04-23T05:54:03.050Z,6.85
2023-04-23T05:56:31.174Z,6.75
2023-04-23T05:58:59.290Z,6.65
2023-04-23T06:01:28.814Z,6.40
2023-04-23T06:03:57.221Z,6.47
2023-04-23T06:06:25.547Z,6.55
2023-04-23T06:08:53.600Z,6.30
2023-04-23T06:11:22.567Z,5.88
2023-04-23T06:13:50.669Z,6.07
2023-04-23T06:16:18.807Z,6.05
2023-04-23T06:18:48.267Z,6.53
2023-04-23T06:21:18.039Z,6.47
2023-04-23T06:23:46.746Z,6.18
2023-04-23T06:26:15.052Z,5.45
2023-04-23T06:28:43.407Z,15.02
2023-04-23T06:31:11.698Z,18.40
2023-04-23T06:33:39.849Z,17.90
2023-04-23T06:36:11.081Z,17.48
2023-04-23T06:38:39.422Z,16.65
2023-04-23T06:41:08.539Z,14.63
2023-04-23T06:43:36.621Z,14.10
2023-04-23T06:46:04.708Z,13.45
2023-04-23T06:48:32.820Z,12.90
2023-04-23T06:51:00.981Z,12.38
2023-04-23T06:53:30.461Z,11.73
2023-04-23T06:55:58.606Z,11.45
2023-04-23T06:58:31.205Z,11.05
2023-04-23T07:01:01.025Z,10.65
2023-04-23T07:05:57.195Z,9.50
2023-04-23T07:08:25.330Z,9.27
2023-04-23T07:10:54.953Z,9.02
2023-04-23T07:13:24.070Z,8.52
2023-04-23T07:15:52.202Z,8.70
2023-04-23T07:18:20.354Z,8.57
2023-04-23T07:20:48.746Z,8.13
2023-04-23T07:23:16.899Z,7.50
2023-04-23T07:25:45.021Z,8.80
2023-04-23T07:28:14.498Z,7.97
2023-04-23T07:30:42.605Z,7.20
2023-04-23T07:33:10.756Z,7.03
2023-04-23T07:35:38.864Z,7.30
2023-04-23T07:38:07.047Z,6.70
2023-04-23T07:40:35.241Z,7.15
2023-04-23T07:43:03.400Z,6.20
2023-04-23T07:45:32.866Z,6.00
2023-04-23T07:48:02.339Z,5.40
2023-04-23T07:52:58.773Z,5.60
2023-04-23T07:55:26.876Z,5.50
2023-04-23T07:57:54.963Z,5.20
2023-04-23T08:00:23.222Z,5.00
2023-04-23T08:02:54.361Z,5.65
2023-04-23T08:05:22.749Z,5.05
2023-04-23T08:07:50.876Z,6.22
2023-04-23T08:10:18.979Z,7.20
2023-04-23T08:12:47.103Z,6.28
2023-04-23T08:15:15.525Z,6.03
2023-04-23T08:17:43.686Z,5.63
2023-04-23T08:20:13.529Z,5.47
2023-04-23T08:22:41.606Z,5.85
2023-04-23T08:25:10.777Z,4.88
2023-04-23T08:27:38.860Z,5.43
2023-04-23T08:30:08.694Z,5.78
2023-04-23T08:32:36.815Z,5.60
2023-04-23T08:35:05.549Z,4.97
2023-04-23T08:37:35.181Z,5.60
2023-04-23T08:40:03.432Z,5.85
2023-04-23T08:42:39.280Z,5.15
2023-04-23T08:45:08.643Z,5.15
2023-04-23T08:47:40.494Z,4.20
2023-04-23T08:50:09.717Z,3.63
2023-04-23T08:52:41.867Z,4.28
2023-04-23T08:55:11.819Z,4.22
2023-04-23T08:57:41.847Z,3.70
2023-04-23T09:00:11.751Z,3.45
2023-04-23T09:02:42.305Z,4.03
2023-04-23T09:05:11.346Z,3.40
2023-04-23T09:07:41.536Z,3.80
2023-04-23T09:10:11.415Z,4.95
2023-04-23T09:12:41.512Z,4.28
2023-04-23T09:15:12.683Z,3.58
2023-04-23T09:17:43.175Z,2.70
2023-04-23T09:20:12.307Z,1.92
2023-04-23T09:22:46.037Z,1.98
2023-04-23T09:25:16.467Z,1.70
2023-04-23T09:27:45.108Z,1.40
2023-04-23T09:30:14.198Z,1.83
2023-04-23T09:32:43.578Z,1.38
2023-04-23T09:35:15.180Z,1.40
2023-04-23T09:37:48.510Z,1.30
2023-04-23T09:40:17.976Z,1.38
2023-04-23T09:42:49.914Z,1.52
2023-04-23T09:45:18.748Z,1.20
2023-04-23T09:47:52.086Z,1.60
2023-04-23T09:50:20.373Z,1.25
2023-04-23T09:52:55.452Z,1.20
2023-04-23T09:55:30.785Z,1.13
2023-04-23T09:57:59.864Z,1.30
2023-04-23T10:00:30.704Z,1.50
2023-04-23T10:03:01.328Z,3.67
2023-04-23T10:05:37.280Z,4.57
2023-04-23T10:08:16.818Z,3.70
2023-04-23T10:10:59.937Z,4.10
2023-04-23T10:13:36.843Z,4.03
2023-04-23T10:16:20.685Z,4.15
2023-04-23T10:18:53.150Z,4.68
2023-04-23T10:21:22.014Z,4.30
2023-04-23T10:23:52.946Z,4.10
2023-04-23T10:26:22.811Z,4.50
2023-04-23T10:28:54.815Z,4.22
2023-04-23T10:31:23.755Z,3.15
2023-04-23T10:33:59.142Z,3.75
2023-04-23T10:36:29.149Z,2.97
2023-04-23T10:39:01.348Z,2.70
2023-04-23T10:41:36.264Z,2.50
2023-04-23T10:44:05.360Z,2.40
2023-04-23T10:46:37.903Z,2.47
2023-04-23T10:49:09.039Z,2.38
2023-04-23T10:54:12.135Z,1.92
2023-04-23T10:56:40.810Z,2.70
2023-04-23T10:59:09.819Z,1.90
2023-04-23T11:01:37.966Z,1.60
2023-04-23T11:04:28.699Z,1.88
2023-04-23T11:06:58.726Z,1.48
2023-04-23T11:09:32.667Z,1.73
2023-04-23T11:12:01.852Z,1.67
2023-04-23T11:14:37.576Z,1.60
2023-04-23T11:17:06.816Z,1.67
2023-04-23T11:19:37.432Z,1.77
2023-04-23T11:22:08.315Z,1.52
2023-04-23T11:24:42.010Z,1.50
2023-04-23T11:27:11.919Z,1.50
2023-04-23T11:29:41.660Z,1.48
2023-04-23T11:32:12.973Z,1.48
2023-04-23T11:34:43.232Z,1.23
2023-04-23T11:37:12.697Z,1.42
2023-04-23T11:39:43.986Z,1.35
2023-04-23T11:42:13.304Z,1.15
2023-04-23T11:44:42.238Z,1.20
2023-04-23T11:47:11.785Z,1.20
2023-04-23T11:49:41.222Z,1.10
2023-04-23T11:52:10.318Z,1.25
2023-04-23T11:54:40.996Z,1.20
2023-04-23T11:57:11.153Z,1.20
2023-04-23T11:59:40.598Z,1.00
2023-04-23T12:02:08.943Z,1.00
2023-04-23T12:04:39.506Z,1.25
2023-04-23T12:07:19.692Z,1.40
2023-04-23T12:09:53.702Z,1.17
2023-04-23T12:12:23.158Z,0.80
2023-04-23T12:14:51.237Z,1.00
2023-04-23T12:17:19.416Z,0.82
2023-04-23T12:19:47.632Z,0.88
2023-04-23T12:22:15.766Z,1.02
2023-04-23T12:24:48.792Z,0.60
2023-04-23T12:27:20.497Z,0.85
2023-04-23T12:29:51.239Z,1.08
2023-04-23T12:32:23.070Z,1.58
2023-04-23T12:34:55.454Z,1.30
2023-04-23T12:37:27.205Z,1.00
2023-04-23T12:39:56.669Z,1.40
2023-04-23T12:42:25.216Z,1.65
2023-04-23T12:44:55.847Z,1.60
2023-04-23T12:47:24.405Z,1.80
2023-04-23T12:49:55.589Z,1.95
2023-04-23T12:52:23.875Z,1.63
2023-04-23T12:54:56.288Z,1.80
2023-04-23T12:57:24.861Z,1.63
2023-04-23T12:59:55.227Z,1.73
2023-04-23T13:02:24.347Z,1.35
2023-04-23T13:04:54.496Z,1.40
2023-04-23T13:07:22.777Z,1.50
2023-04-23T13:09:50.863Z,1.33
2023-04-23T13:12:18.987Z,1.27
2023-04-23T13:14:47.076Z,1.23
2023-04-23T13:17:16.550Z,0.90
2023-04-23T13:19:44.940Z,1.50
2023-04-23T13:22:13.063Z,1.55
2023-04-23T13:24:41.165Z,2.00
2023-04-23T13:27:09.461Z,1.65
2023-04-23T13:29:37.650Z,1.88
2023-04-23T13:32:05.911Z,1.98
2023-04-23T13:34:35.863Z,1.90
2023-04-23T13:37:05.832Z,1.60
2023-04-23T13:39:33.958Z,1.38
2023-04-23T13:42:09.083Z,1.58
2023-04-23T13:44:37.801Z,1.50
2023-04-23T13:47:06.067Z,1.27
2023-04-23T13:49:36.012Z,1.40
2023-04-23T13:52:06.747Z,1.48
2023-04-23T13:54:35.655Z,1.33
2023-04-23T13:57:04.100Z,1.33
2023-04-23T13:59:32.235Z,1.30
2023-04-23T14:02:00.320Z,1.80
2023-04-23T14:04:28.572Z,1.48
2023-04-23T14:06:58.059Z,1.83
2023-04-23T14:09:26.171Z,1.00
2023-04-23T14:11:54.278Z,1.30
2023-04-23T14:14:22.376Z,1.10
2023-04-23T14:16:50.633Z,1.38
2023-04-23T14:19:18.735Z,0.90
2023-04-23T14:21:46.918Z,1.08
2023-04-23T14:24:24.544Z,1.00
2023-04-23T14:26:52.687Z,0.80
2023-04-23T14:29:25.946Z,1.00
2023-04-23T14:31:54.128Z,1.00
2023-04-23T14:34:22.487Z,1.10
2023-04-23T14:36:52.990Z,0.90
2023-04-23T14:39:25.766Z,1.05
2023-04-23T14:41:54.369Z,1.20
2023-04-23T14:44:23.448Z,1.05
2023-04-23T14:46:51.612Z,0.93
2023-04-23T14:49:20.881Z,1.05
2023-04-23T14:51:50.855Z,0.90
2023-04-23T14:54:19.007Z,0.80
2023-04-23T14:56:48.478Z,0.95
2023-04-23T14:59:16.647Z,0.93
2023-04-23T15:01:44.998Z,0.82
2023-04-23T15:04:13.332Z,1.15
2023-04-23T15:06:41.602Z,1.00
2023-04-23T15:09:09.974Z,1.17
2023-04-23T15:11:38.921Z,1.10
2023-04-23T15:14:17.421Z,1.45
2023-04-23T15:16:49.562Z,0.90
2023-04-23T15:19:19.062Z,1.25
2023-04-23T15:21:47.693Z,0.82
2023-04-23T15:24:16.277Z,0.90
2023-04-23T15:26:45.830Z,1.10
2023-04-23T15:29:15.558Z,0.90
2023-04-23T15:31:43.731Z,1.20
2023-04-23T15:34:12.221Z,1.10
2023-04-23T15:36:40.616Z,0.90
2023-04-23T15:39:10.143Z,1.15
2023-04-23T15:41:40.644Z,1.00
2023-04-23T15:44:12.322Z,1.10
2023-04-23T15:46:41.983Z,1.10
2023-04-23T15:49:10.162Z,1.23
2023-04-23T15:51:38.425Z,0.90
2023-04-23T15:54:08.697Z,1.00
2023-04-23T15:56:37.497Z,0.98
2023-04-23T15:59:06.083Z,1.10
2023-04-23T16:01:34.361Z,1.00
2023-04-23T16:06:34.979Z,1.00
2023-04-23T16:09:06.733Z,0.80
2023-04-23T16:11:35.694Z,1.10
2023-04-23T16:14:04.611Z,1.00
2023-04-23T16:16:33.000Z,1.00
2023-04-23T16:19:02.047Z,0.77
2023-04-23T16:21:32.091Z,1.00
2023-04-23T16:24:00.433Z,0.70
2023-04-23T16:26:29.713Z,0.98
2023-04-23T16:31:29.130Z,0.85
2023-04-23T16:33:57.526Z,0.80
2023-04-23T16:36:25.711Z,1.00
2023-04-23T16:38:55.208Z,0.93
2023-04-23T16:43:51.280Z,1.23
2023-04-23T16:46:19.575Z,1.52
2023-04-23T16:48:47.769Z,1.95
2023-04-23T16:51:16.035Z,1.23
2023-04-23T16:53:44.234Z,1.38
2023-04-23T16:56:13.888Z,1.42
2023-04-23T16:58:42.090Z,1.50
2023-04-23T17:01:10.895Z,1.50
2023-04-23T17:03:39.518Z,1.42
2023-04-23T17:06:11.680Z,1.40
2023-04-23T17:08:40.109Z,1.40
2023-04-23T17:11:08.567Z,1.50
2023-04-23T17:13:38.068Z,1.88
2023-04-23T17:18:34.170Z,1.73
2023-04-23T17:21:02.327Z,1.00
2023-04-23T17:23:30.514Z,1.23
2023-04-23T17:25:58.622Z,1.20
2023-04-23T17:28:26.796Z,1.38
2023-04-23T17:30:56.396Z,1.40
2023-04-23T17:35:53.325Z,1.33
2023-04-23T17:38:21.562Z,1.30
2023-04-23T17:40:50.356Z,1.38
2023-04-23T17:43:18.949Z,1.30
2023-04-23T17:45:47.662Z,1.30
2023-04-23T17:48:17.426Z,0.90
2023-04-23T17:53:15.136Z,1.17
2023-04-23T17:55:43.218Z,0.73
2023-04-23T17:58:11.351Z,1.17
2023-04-23T18:00:41.812Z,1.00
2023-04-23T18:03:11.749Z,1.10
2023-04-23T18:05:41.449Z,1.20
2023-04-23T18:08:09.551Z,1.25
2023-04-23T18:10:37.716Z,0.63
2023-04-23T18:13:09.166Z,0.90
2023-04-23T18:15:37.310Z,0.80
2023-04-23T18:18:06.380Z,0.75
2023-04-23T18:20:35.579Z,0.70
2023-04-23T18:23:05.399Z,0.95
2023-04-23T18:25:33.656Z,0.80
2023-04-23T18:28:01.759Z,0.65
2023-04-23T18:30:30.241Z,0.93
2023-04-23T18:33:07.747Z,0.63
2023-04-23T18:35:36.032Z,1.15
2023-04-23T18:38:11.862Z,1.20
2023-04-23T18:40:40.483Z,1.00
2023-04-23T18:43:08.573Z,1.05
2023-04-23T18:45:36.874Z,0.95
2023-04-23T18:48:24.577Z,1.17
2023-04-23T18:50:57.860Z,0.90
2023-04-23T18:53:27.371Z,1.00
2023-04-23T18:55:55.460Z,0.90
2023-04-23T18:58:23.594Z,0.98
2023-04-23T19:00:51.834Z,0.77
2023-04-23T19:03:26.937Z,0.88
2023-04-23T19:05:55.624Z,0.98
2023-04-23T19:08:28.477Z,0.75
2023-04-23T19:10:58.379Z,0.77
2023-04-23T19:13:26.698Z,0.75
2023-04-23T19:15:55.147Z,1.10
2023-04-23T19:18:23.413Z,0.80
2023-04-23T19:20:52.496Z,0.90
2023-04-23T19:23:21.036Z,0.90
2023-04-23T19:25:49.205Z,0.70
2023-04-23T19:28:18.742Z,0.70
2023-04-23T19:30:46.871Z,0.90
2023-04-23T19:33:14.999Z,0.63
2023-04-23T19:35:43.171Z,0.90
2023-04-23T19:38:11.293Z,0.60
2023-04-23T19:40:39.415Z,1.00
2023-04-23T19:43:07.704Z,0.75
2023-04-23T19:45:37.475Z,0.88
2023-04-23T19:48:07.888Z,0.65
2023-04-23T19:50:36.245Z,0.50
2023-04-23T19:53:05.549Z,0.55
2023-04-23T19:55:33.732Z,0.50
2023-04-23T19:58:06.199Z,0.80
2023-04-23T20:00:40.018Z,0.70
2023-04-23T20:03:09.232Z,0.68
2023-04-23T20:05:37.580Z,0.85
2023-04-23T20:08:11.372Z,1.05
2023-04-23T20:10:39.543Z,1.00
2023-04-23T20:13:07.696Z,0.80
2023-04-23T20:15:37.551Z,1.20
2023-04-23T20:18:06.304Z,1.30
2023-04-23T20:20:35.762Z,1.17
2023-04-23T20:23:03.886Z,1.00
2023-04-23T20:25:32.085Z,1.20
2023-04-23T20:28:00.339Z,0.90
2023-04-23T20:30:28.430Z,1.10
2023-04-23T20:32:58.239Z,0.93
2023-04-23T20:35:28.631Z,0.90
2023-04-23T20:37:56.882Z,0.90
2023-04-23T20:40:25.148Z,0.90
2023-04-23T20:42:54.537Z,0.88
2023-04-23T20:45:23.371Z,0.60
2023-04-23T20:47:51.521Z,1.05
2023-04-23T20:50:21.382Z,0.75
2023-04-23T20:52:49.562Z,1.00
2023-04-23T20:55:17.628Z,0.85
2023-04-23T20:57:45.742Z,0.80
2023-04-23T21:00:14.807Z,0.70
2023-04-23T21:02:43.141Z,0.90
2023-04-23T21:05:13.443Z,0.60
2023-04-23T21:07:44.449Z,0.70
2023-04-23T21:10:12.889Z,0.73
2023-04-23T21:12:43.381Z,0.70
2023-04-23T21:15:13.285Z,0.77
2023-04-23T21:17:41.507Z,0.60
2023-04-23T21:20:10.731Z,0.60
2023-04-23T21:22:38.925Z,0.80
2023-04-23T21:25:08.921Z,0.50
2023-04-23T21:27:37.116Z,0.60
2023-04-23T21:30:11.179Z,0.60
2023-04-23T21:32:39.514Z,0.63
2023-04-23T21:35:08.566Z,0.47
2023-04-23T21:37:38.009Z,0.60
2023-04-23T21:40:10.462Z,0.63
2023-04-23T21:42:38.839Z,0.57
2023-04-23T21:45:08.679Z,0.50
2023-04-23T21:47:36.820Z,0.65
2023-04-23T21:50:05.324Z,0.50
2023-04-23T21:52:33.819Z,0.70
2023-04-23T21:55:02.242Z,0.45
2023-04-23T21:57:31.745Z,0.47
2023-04-23T21:59:59.899Z,0.50
2023-04-23T22:02:28.355Z,0.47
2023-04-23T22:04:56.542Z,0.30
2023-04-23T22:07:26.794Z,0.60
2023-04-23T22:09:57.136Z,0.50
2023-04-23T22:12:25.260Z,0.40
2023-04-23T22:14:54.744Z,0.40
2023-04-23T22:17:26.293Z,0.47
2023-04-23T22:19:54.899Z,0.50
2023-04-23T22:22:23.013Z,0.40
2023-04-23T22:24:51.292Z,0.40
2023-04-23T22:27:19.458Z,0.40
2023-04-23T22:29:47.555Z,0.40
2023-04-23T22:32:17.048Z,0.40
2023-04-23T22:34:45.325Z,0.40
2023-04-23T22:37:13.545Z,0.47
2023-04-23T22:39:41.843Z,0.45
2023-04-23T22:42:10.222Z,0.40
2023-04-23T22:44:38.958Z,0.40
2023-04-23T22:47:07.311Z,0.40
2023-04-23T22:49:37.051Z,0.30
2023-04-23T22:54:33.164Z,0.30
2023-04-23T22:57:02.152Z,0.28
2023-04-23T22:59:31.185Z,0.30
2023-04-23T23:01:59.429Z,0.30
2023-04-23T23:04:27.639Z,0.30
2023-04-23T23:06:57.239Z,0.30
2023-04-23T23:09:25.477Z,0.25
2023-04-23T23:11:53.573Z,0.30
2023-04-23T23:14:21.864Z,0.40
2023-04-23T23:16:49.941Z,0.20
2023-04-23T23:19:18.052Z,0.30
2023-04-23T23:21:46.153Z,0.30
2023-04-23T23:24:15.732Z,0.30
2023-04-23T23:26:43.812Z,0.20
2023-04-23T23:29:11.963Z,0.20
2023-04-23T23:31:40.234Z,0.20
2023-04-23T23:34:08.830Z,0.40
2023-04-23T23:36:37.066Z,0.20
2023-04-23T23:39:06.814Z,0.20
2023-04-23T23:41:36.404Z,0.25
2023-04-23T23:44:04.504Z,0.30
2023-04-23T23:46:32.627Z,0.20
2023-04-23T23:49:00.777Z,0.10
2023-04-23T23:51:29.162Z,0.30
2023-04-23T23:53:57.287Z,0.30
2023-04-23T23:56:25.430Z,0.20
2023-04-23T23:58:55.062Z,0.13
